createdAt,value
2019-02-22T00:01:43.100Z,20.93
2019-02-22T00:06:45.771Z,20.94
2019-02-22T00:11:48.444Z,20.97
2019-02-22T00:16:51.093Z,20.97
2019-02-22T00:21:53.759Z,21.01
2019-02-22T00:26:56.426Z,21.04
2019-02-22T00:31:59.088Z,21.06
2019-02-22T00:37:01.840Z,21.05
2019-02-22T00:42:04.476Z,21.07
2019-02-22T00:47:07.142Z,21.05
2019-02-22T00:52:09.787Z,21.13
2019-02-22T00:57:12.452Z,21.13
2019-02-22T01:02:15.151Z,21.13
2019-02-22T01:07:17.820Z,21.16
2019-02-22T01:12:20.521Z,21.14
2019-02-22T01:17:23.192Z,21.16
2019-02-22T01:22:25.873Z,21.20
2019-02-22T01:27:28.580Z,21.18
2019-02-22T01:32:31.264Z,21.20
2019-02-22T01:37:33.914Z,21.19
2019-02-22T01:42:36.583Z,21.22
2019-02-22T01:47:39.284Z,21.24
2019-02-22T01:52:41.947Z,21.26
2019-02-22T01:57:44.620Z,21.25
2019-02-22T02:02:47.271Z,21.27
2019-02-22T02:12:51.707Z,21.27
2019-02-22T02:17:54.375Z,21.32
2019-02-22T02:27:58.869Z,21.34
2019-02-22T02:33:01.542Z,21.31
2019-02-22T02:38:04.220Z,21.37
2019-02-22T02:43:06.952Z,21.35
2019-02-22T02:48:09.635Z,21.38
2019-02-22T02:53:12.294Z,21.39
2019-02-22T02:58:14.961Z,21.39
2019-02-22T03:03:17.629Z,21.41
2019-02-22T03:08:20.843Z,21.42
2019-02-22T03:13:23.529Z,21.43
2019-02-22T03:18:26.204Z,21.45
2019-02-22T03:23:28.877Z,21.46
2019-02-22T03:28:31.550Z,21.44
2019-02-22T03:33:34.218Z,21.46
2019-02-22T03:38:36.881Z,21.47
2019-02-22T03:43:39.551Z,21.47
2019-02-22T03:48:42.201Z,21.49
2019-02-22T03:53:46.521Z,21.46
2019-02-22T03:58:49.200Z,21.47
2019-02-22T04:03:51.856Z,21.48
2019-02-22T04:08:54.537Z,21.53
2019-02-22T04:13:57.211Z,21.50
2019-02-22T04:18:59.869Z,21.53
2019-02-22T04:24:02.534Z,21.51
2019-02-22T04:29:05.168Z,21.53
2019-02-22T04:34:07.837Z,21.52
2019-02-22T04:39:10.501Z,21.53
2019-02-22T04:44:13.174Z,21.51
2019-02-22T04:49:15.860Z,21.51
2019-02-22T04:54:18.560Z,21.51
2019-02-22T04:59:21.229Z,21.48
2019-02-22T05:04:23.976Z,21.55
2019-02-22T05:09:26.663Z,21.59
2019-02-22T05:14:29.329Z,21.74
2019-02-22T05:19:31.992Z,21.69
2019-02-22T05:24:34.657Z,21.70
2019-02-22T05:29:37.497Z,21.70
2019-02-22T05:34:40.163Z,21.76
2019-02-22T05:39:42.902Z,21.80
2019-02-22T05:44:45.635Z,21.89
2019-02-22T05:49:48.303Z,21.92
2019-02-22T05:54:50.973Z,21.91
2019-02-22T05:59:53.666Z,21.84
2019-02-22T06:04:56.328Z,21.82
2019-02-22T06:09:59.077Z,21.75
2019-02-22T06:15:01.747Z,21.72
2019-02-22T06:20:06.202Z,21.75
2019-02-22T06:25:09.060Z,21.77
2019-02-22T06:30:11.714Z,21.69
2019-02-22T06:35:14.387Z,21.72
2019-02-22T06:40:17.032Z,21.74
2019-02-22T06:45:19.733Z,21.73
2019-02-22T06:50:33.169Z,21.72
2019-02-22T06:55:26.708Z,21.73
2019-02-22T07:00:29.384Z,21.70
2019-02-22T07:05:32.093Z,21.68
2019-02-22T07:10:36.396Z,21.69
2019-02-22T07:15:39.046Z,21.69
2019-02-22T07:20:41.721Z,21.71
2019-02-22T07:25:44.382Z,21.76
2019-02-22T07:30:47.048Z,21.72
2019-02-22T07:35:49.719Z,21.77
2019-02-22T07:40:52.361Z,21.75
2019-02-22T07:45:55.024Z,21.75
2019-02-22T07:50:58.564Z,21.74
2019-02-22T07:56:01.290Z,21.78
2019-02-22T08:01:03.936Z,21.74
2019-02-22T08:06:06.608Z,21.75
2019-02-22T08:11:09.266Z,21.79
2019-02-22T08:16:11.914Z,21.79
2019-02-22T08:21:14.619Z,21.76
2019-02-22T08:26:17.281Z,21.78
2019-02-22T08:31:19.940Z,21.79
2019-02-22T08:36:22.602Z,21.81
2019-02-22T08:41:25.246Z,21.75
2019-02-22T08:46:27.931Z,21.80
2019-02-22T08:51:30.581Z,21.83
2019-02-22T08:56:33.301Z,21.80
2019-02-22T09:01:35.972Z,21.83
2019-02-22T09:06:38.656Z,21.84
2019-02-22T09:11:41.335Z,21.83
2019-02-22T09:16:44.031Z,21.81
2019-02-22T09:21:46.727Z,21.83
2019-02-22T09:26:49.411Z,21.85
2019-02-22T09:31:52.103Z,21.84
2019-02-22T09:36:54.800Z,21.85
2019-02-22T09:41:57.618Z,21.81
2019-02-22T09:47:00.303Z,21.80
2019-02-22T09:52:03.005Z,21.79
2019-02-22T09:57:05.741Z,21.88
2019-02-22T10:02:08.420Z,21.83
2019-02-22T10:07:11.113Z,21.81
2019-02-22T10:12:13.760Z,21.82
2019-02-22T10:17:16.420Z,21.84
2019-02-22T10:22:19.097Z,21.86
2019-02-22T10:27:21.768Z,21.85
2019-02-22T10:32:24.411Z,21.88
2019-02-22T10:37:27.071Z,21.87
2019-02-22T10:42:29.738Z,21.88
2019-02-22T10:47:32.405Z,21.87
2019-02-22T10:52:35.084Z,21.87
2019-02-22T10:57:37.853Z,21.89
2019-02-22T11:02:40.533Z,21.91
2019-02-22T11:07:43.195Z,21.91
2019-02-22T11:12:48.054Z,21.90
2019-02-22T11:17:50.715Z,21.92
2019-02-22T11:22:53.379Z,21.95
2019-02-22T11:27:56.049Z,21.94
2019-02-22T11:32:58.711Z,21.99
2019-02-22T11:38:01.363Z,21.99
2019-02-22T11:43:04.096Z,22.01
2019-02-22T11:48:09.434Z,22.15
2019-02-22T11:53:11.081Z,22.27
2019-02-22T11:58:13.756Z,22.42
2019-02-22T12:03:24.700Z,22.61
2019-02-22T12:08:20.725Z,22.79
2019-02-22T12:13:23.433Z,22.98
2019-02-22T12:18:26.216Z,23.17
2019-02-22T12:23:28.880Z,23.51
2019-02-22T12:28:31.530Z,23.90
2019-02-22T12:33:34.184Z,24.13
2019-02-22T12:38:36.828Z,24.25
2019-02-22T12:43:39.495Z,24.40
2019-02-22T12:48:42.172Z,24.53
2019-02-22T12:53:44.846Z,24.70
2019-02-22T12:59:13.996Z,24.90
2019-02-22T13:04:16.676Z,24.96
2019-02-22T13:09:19.381Z,24.82
2019-02-22T13:14:22.062Z,24.53
2019-02-22T13:19:24.725Z,24.24
2019-02-22T13:24:27.412Z,24.23
2019-02-22T13:29:30.070Z,24.25
2019-02-22T13:34:32.736Z,24.01
2019-02-22T13:39:35.405Z,23.75
2019-02-22T13:44:38.962Z,23.81
2019-02-22T13:49:41.629Z,23.82
2019-02-22T13:54:44.577Z,24.25
2019-02-22T13:59:48.121Z,24.70
2019-02-22T14:04:50.908Z,24.93
2019-02-22T14:09:53.571Z,25.41
2019-02-22T14:14:56.232Z,25.46
2019-02-22T14:19:58.889Z,25.74
2019-02-22T14:25:01.564Z,25.88
2019-02-22T14:30:05.844Z,25.99
2019-02-22T14:35:08.512Z,25.28
2019-02-22T14:40:11.629Z,25.26
2019-02-22T14:45:14.281Z,24.85
2019-02-22T14:50:17.623Z,24.80
2019-02-22T14:55:20.296Z,24.63
2019-02-22T15:00:22.972Z,24.35
2019-02-22T15:05:25.633Z,24.38
2019-02-22T15:10:28.289Z,24.50
2019-02-22T15:15:38.511Z,24.45
2019-02-22T15:20:41.167Z,24.29
2019-02-22T15:25:44.165Z,24.17
2019-02-22T15:30:46.873Z,24.19
2019-02-22T15:35:49.502Z,24.11
2019-02-22T15:40:52.177Z,23.84
2019-02-22T15:45:54.820Z,23.47
2019-02-22T15:50:57.488Z,23.08
2019-02-22T15:56:00.167Z,22.74
2019-02-22T16:01:02.906Z,22.51
2019-02-22T16:06:05.632Z,22.39
2019-02-22T16:11:08.288Z,22.46
2019-02-22T16:16:10.960Z,22.59
2019-02-22T16:21:13.644Z,22.64
2019-02-22T16:26:17.985Z,22.66
2019-02-22T16:31:20.731Z,22.68
2019-02-22T16:36:23.380Z,22.67
2019-02-22T16:41:26.055Z,22.64
2019-02-22T16:46:34.860Z,22.67
2019-02-22T16:51:33.004Z,22.64
2019-02-22T16:56:35.656Z,22.64
2019-02-22T17:01:38.356Z,22.62
2019-02-22T17:06:41.011Z,22.59
2019-02-22T17:11:43.688Z,22.62
2019-02-22T17:16:46.382Z,22.55
2019-02-22T17:21:49.046Z,22.59
2019-02-22T17:26:51.685Z,22.56
2019-02-22T17:31:54.332Z,22.59
2019-02-22T17:36:57.000Z,22.57
2019-02-22T17:41:59.751Z,22.56
2019-02-22T17:47:02.489Z,22.55
2019-02-22T17:52:05.138Z,22.52
2019-02-22T17:57:07.807Z,22.54
2019-02-22T18:02:10.483Z,22.48
2019-02-22T18:07:13.165Z,22.50
2019-02-22T18:12:15.819Z,22.50
2019-02-22T18:17:18.484Z,22.49
2019-02-22T18:22:25.797Z,22.43
2019-02-22T18:27:25.472Z,22.41
2019-02-22T18:32:28.143Z,22.36
2019-02-22T18:37:30.827Z,22.37
2019-02-22T18:42:33.557Z,22.32
2019-02-22T18:47:36.222Z,22.28
2019-02-22T18:52:38.957Z,22.26
2019-02-22T18:57:41.629Z,22.21
2019-02-22T19:02:44.293Z,22.18
2019-02-22T19:07:46.951Z,22.18
2019-02-22T19:12:49.604Z,22.14
2019-02-22T19:17:52.295Z,22.12
2019-02-22T19:22:54.950Z,22.08
2019-02-22T19:27:57.600Z,22.05
2019-02-22T19:33:00.270Z,22.03
2019-02-22T19:38:02.922Z,22.05
2019-02-22T19:43:05.652Z,22.04
2019-02-22T19:48:08.353Z,22.01
2019-02-22T19:53:11.008Z,22.01
2019-02-22T19:58:13.660Z,21.96
2019-02-22T20:03:16.323Z,21.98
2019-02-22T20:08:19.000Z,21.96
2019-02-22T20:13:21.664Z,21.97
2019-02-22T20:18:24.309Z,21.92
2019-02-22T20:23:26.962Z,21.94
2019-02-22T20:28:29.632Z,21.92
2019-02-22T20:33:32.362Z,21.90
2019-02-22T20:38:35.069Z,21.94
2019-02-22T20:43:37.779Z,21.91
2019-02-22T20:48:40.458Z,21.91
2019-02-22T20:53:43.118Z,21.89
2019-02-22T20:58:45.747Z,21.92
2019-02-22T21:03:48.415Z,21.86
2019-02-22T21:08:51.080Z,21.86
2019-02-22T21:13:53.784Z,21.85
2019-02-22T21:18:56.447Z,21.89
2019-02-22T21:23:59.115Z,21.91
2019-02-22T21:29:01.791Z,21.92
2019-02-22T21:34:04.468Z,21.89
2019-02-22T21:39:07.128Z,21.85
2019-02-22T21:44:09.788Z,21.84
2019-02-22T21:49:12.449Z,21.82
2019-02-22T21:54:15.104Z,21.78
2019-02-22T21:59:17.755Z,21.78
2019-02-22T22:04:20.423Z,21.74
2019-02-22T22:09:23.069Z,21.75
2019-02-22T22:14:25.719Z,21.72
2019-02-22T22:19:28.379Z,21.69
2019-02-22T22:24:31.092Z,21.73
2019-02-22T22:29:33.756Z,21.67
2019-02-22T22:34:36.427Z,21.64
2019-02-22T22:39:39.107Z,21.65
2019-02-22T22:44:41.770Z,21.62
2019-02-22T22:49:44.420Z,21.61
2019-02-22T22:54:47.067Z,21.61
2019-02-22T23:00:04.404Z,21.62
2019-02-22T23:05:09.023Z,21.60
2019-02-22T23:10:11.756Z,21.61
2019-02-22T23:15:14.430Z,21.59
2019-02-22T23:20:17.096Z,21.59
2019-02-22T23:25:19.803Z,21.59
2019-02-22T23:30:22.506Z,21.55
2019-02-22T23:35:25.182Z,21.53
2019-02-22T23:40:27.816Z,21.53
2019-02-22T23:45:30.524Z,21.52
2019-02-22T23:50:33.187Z,21.53
2019-02-22T23:55:35.863Z,21.50
